sensor_id;sensor_type;location;lat;lon;timestamp;P1;durP1;ratioP1;P2;durP2;ratioP2
313;SDS011;143;51.634;7.112;2024-03-02T00:00:36;3.43;;;2.27;;
313;SDS011;143;51.634;7.112;2024-03-02T00:03:01;4.00;;;2.13;;
313;SDS011;143;51.634;7.112;2024-03-02T00:05:27;2.00;;;1.70;;
313;SDS011;143;51.634;7.112;2024-03-02T00:07:57;5.37;;;1.90;;
313;SDS011;143;51.634;7.112;2024-03-02T00:10:26;5.50;;;1.70;;
313;SDS011;143;51.634;7.112;2024-03-02T00:13:12;3.07;;;2.13;;
313;SDS011;143;51.634;7.112;2024-03-02T00:15:45;5.10;;;2.47;;
313;SDS011;143;51.634;7.112;2024-03-02T00:18:13;3.10;;;2.00;;
313;SDS011;143;51.634;7.112;2024-03-02T00:20:43;3.50;;;2.00;;
313;SDS011;143;51.634;7.112;2024-03-02T00:23:09;2.60;;;1.57;;
313;SDS011;143;51.634;7.112;2024-03-02T00:25:38;3.20;;;1.90;;
313;SDS011;143;51.634;7.112;2024-03-02T00:28:13;3.90;;;1.87;;
313;SDS011;143;51.634;7.112;2024-03-02T00:33:20;4.30;;;2.00;;
313;SDS011;143;51.634;7.112;2024-03-02T00:35:46;3.03;;;1.90;;
313;SDS011;143;51.634;7.112;2024-03-02T00:38:12;2.73;;;1.97;;
313;SDS011;143;51.634;7.112;2024-03-02T00:40:40;5.00;;;1.70;;
313;SDS011;143;51.634;7.112;2024-03-02T00:43:09;3.67;;;1.90;;
313;SDS011;143;51.634;7.112;2024-03-02T00:46:03;3.90;;;1.90;;
313;SDS011;143;51.634;7.112;2024-03-02T00:48:29;2.90;;;1.90;;
313;SDS011;143;51.634;7.112;2024-03-02T00:50:56;2.23;;;1.57;;
313;SDS011;143;51.634;7.112;2024-03-02T00:53:23;3.57;;;1.73;;
313;SDS011;143;51.634;7.112;2024-03-02T00:55:51;2.43;;;1.90;;
313;SDS011;143;51.634;7.112;2024-03-02T00:58:17;3.80;;;1.90;;
313;SDS011;143;51.634;7.112;2024-03-02T01:00:43;3.37;;;2.27;;
313;SDS011;143;51.634;7.112;2024-03-02T01:03:08;7.00;;;1.87;;
313;SDS011;143;51.634;7.112;2024-03-02T01:05:35;2.90;;;1.60;;
313;SDS011;143;51.634;7.112;2024-03-02T01:08:01;3.57;;;1.60;;
313;SDS011;143;51.634;7.112;2024-03-02T01:10:27;4.37;;;1.67;;
313;SDS011;143;51.634;7.112;2024-03-02T01:12:53;3.30;;;1.50;;
313;SDS011;143;51.634;7.112;2024-03-02T01:15:18;2.10;;;1.70;;
313;SDS011;143;51.634;7.112;2024-03-02T01:17:44;3.37;;;1.70;;
313;SDS011;143;51.634;7.112;2024-03-02T01:20:10;2.60;;;1.57;;
313;SDS011;143;51.634;7.112;2024-03-02T01:22:36;2.67;;;1.70;;
313;SDS011;143;51.634;7.112;2024-03-02T01:25:02;2.50;;;1.97;;
313;SDS011;143;51.634;7.112;2024-03-02T01:27:28;3.93;;;1.40;;
313;SDS011;143;51.634;7.112;2024-03-02T01:29:53;3.50;;;1.30;;
313;SDS011;143;51.634;7.112;2024-03-02T01:32:19;2.73;;;1.37;;
313;SDS011;143;51.634;7.112;2024-03-02T01:34:45;2.43;;;1.50;;
313;SDS011;143;51.634;7.112;2024-03-02T01:37:10;3.40;;;1.87;;
313;SDS011;143;51.634;7.112;2024-03-02T01:39:36;6.23;;;2.13;;
313;SDS011;143;51.634;7.112;2024-03-02T01:42:02;2.73;;;1.60;;
313;SDS011;143;51.634;7.112;2024-03-02T01:44:27;3.20;;;1.60;;
313;SDS011;143;51.634;7.112;2024-03-02T01:46:53;4.67;;;1.73;;
313;SDS011;143;51.634;7.112;2024-03-02T01:49:18;3.60;;;1.40;;
313;SDS011;143;51.634;7.112;2024-03-02T01:51:44;3.60;;;1.50;;
313;SDS011;143;51.634;7.112;2024-03-02T01:54:09;6.63;;;1.87;;
313;SDS011;143;51.634;7.112;2024-03-02T01:56:35;2.27;;;1.40;;
313;SDS011;143;51.634;7.112;2024-03-02T01:59:01;4.57;;;1.80;;
313;SDS011;143;51.634;7.112;2024-03-02T02:01:27;4.40;;;1.40;;
313;SDS011;143;51.634;7.112;2024-03-02T02:03:52;8.90;;;1.93;;
313;SDS011;143;51.634;7.112;2024-03-02T02:06:18;3.47;;;1.73;;
313;SDS011;143;51.634;7.112;2024-03-02T02:08:43;1.37;;;1.33;;
313;SDS011;143;51.634;7.112;2024-03-02T02:11:10;2.63;;;1.53;;
313;SDS011;143;51.634;7.112;2024-03-02T02:13:35;2.27;;;1.50;;
313;SDS011;143;51.634;7.112;2024-03-02T02:16:05;8.30;;;1.60;;
313;SDS011;143;51.634;7.112;2024-03-02T02:18:31;2.47;;;1.43;;
313;SDS011;143;51.634;7.112;2024-03-02T02:20:57;5.93;;;1.60;;
313;SDS011;143;51.634;7.112;2024-03-02T02:23:23;3.53;;;1.30;;
313;SDS011;143;51.634;7.112;2024-03-02T02:25:48;6.97;;;1.40;;
313;SDS011;143;51.634;7.112;2024-03-02T02:28:14;2.40;;;1.17;;
313;SDS011;143;51.634;7.112;2024-03-02T02:30:39;3.60;;;1.90;;
313;SDS011;143;51.634;7.112;2024-03-02T02:33:05;5.57;;;1.40;;
313;SDS011;143;51.634;7.112;2024-03-02T02:35:30;2.73;;;1.20;;
313;SDS011;143;51.634;7.112;2024-03-02T02:37:56;2.50;;;1.43;;
313;SDS011;143;51.634;7.112;2024-03-02T02:40:23;2.20;;;1.20;;
313;SDS011;143;51.634;7.112;2024-03-02T02:42:49;1.83;;;1.30;;
313;SDS011;143;51.634;7.112;2024-03-02T02:45:16;2.27;;;1.40;;
313;SDS011;143;51.634;7.112;2024-03-02T02:47:42;2.87;;;1.70;;
313;SDS011;143;51.634;7.112;2024-03-02T02:50:09;5.03;;;1.93;;
313;SDS011;143;51.634;7.112;2024-03-02T02:52:37;1.87;;;1.37;;
313;SDS011;143;51.634;7.112;2024-03-02T02:55:05;5.70;;;1.93;;
313;SDS011;143;51.634;7.112;2024-03-02T02:57:32;1.93;;;1.50;;
313;SDS011;143;51.634;7.112;2024-03-02T03:00:04;2.73;;;1.30;;
313;SDS011;143;51.634;7.112;2024-03-02T03:02:35;1.70;;;1.27;;
313;SDS011;143;51.634;7.112;2024-03-02T03:05:01;6.20;;;1.97;;
313;SDS011;143;51.634;7.112;2024-03-02T03:07:27;5.60;;;1.60;;
313;SDS011;143;51.634;7.112;2024-03-02T03:09:52;4.20;;;1.80;;
313;SDS011;143;51.634;7.112;2024-03-02T03:12:18;4.40;;;1.40;;
313;SDS011;143;51.634;7.112;2024-03-02T03:14:43;4.70;;;1.57;;
313;SDS011;143;51.634;7.112;2024-03-02T03:17:09;1.87;;;1.63;;
313;SDS011;143;51.634;7.112;2024-03-02T03:19:34;2.90;;;1.40;;
313;SDS011;143;51.634;7.112;2024-03-02T03:22:00;3.70;;;1.30;;
313;SDS011;143;51.634;7.112;2024-03-02T03:24:26;1.40;;;1.10;;
313;SDS011;143;51.634;7.112;2024-03-02T03:26:52;4.03;;;1.30;;
313;SDS011;143;51.634;7.112;2024-03-02T03:29:17;3.40;;;1.67;;
313;SDS011;143;51.634;7.112;2024-03-02T03:31:43;2.80;;;1.23;;
313;SDS011;143;51.634;7.112;2024-03-02T03:34:08;6.90;;;1.37;;
313;SDS011;143;51.634;7.112;2024-03-02T03:36:34;6.10;;;1.40;;
313;SDS011;143;51.634;7.112;2024-03-02T03:38:59;2.00;;;1.40;;
313;SDS011;143;51.634;7.112;2024-03-02T03:41:27;3.00;;;1.40;;
313;SDS011;143;51.634;7.112;2024-03-02T03:43:52;5.43;;;1.67;;
313;SDS011;143;51.634;7.112;2024-03-02T03:46:18;2.80;;;1.30;;
313;SDS011;143;51.634;7.112;2024-03-02T03:48:43;3.10;;;1.93;;
313;SDS011;143;51.634;7.112;2024-03-02T03:51:09;4.27;;;1.77;;
313;SDS011;143;51.634;7.112;2024-03-02T03:53:34;2.33;;;1.30;;
313;SDS011;143;51.634;7.112;2024-03-02T03:56:00;2.17;;;0.93;;
313;SDS011;143;51.634;7.112;2024-03-02T03:58:25;3.27;;;1.73;;
313;SDS011;143;51.634;7.112;2024-03-02T04:00:51;1.50;;;1.33;;
313;SDS011;143;51.634;7.112;2024-03-02T04:03:16;2.07;;;1.57;;
313;SDS011;143;51.634;7.112;2024-03-02T04:05:42;3.30;;;1.40;;
313;SDS011;143;51.634;7.112;2024-03-02T04:08:07;1.47;;;1.10;;
313;SDS011;143;51.634;7.112;2024-03-02T04:10:33;3.97;;;1.40;;
313;SDS011;143;51.634;7.112;2024-03-02T04:12:59;3.60;;;1.50;;
313;SDS011;143;51.634;7.112;2024-03-02T04:15:24;2.67;;;1.33;;
313;SDS011;143;51.634;7.112;2024-03-02T04:17:50;2.27;;;1.30;;
313;SDS011;143;51.634;7.112;2024-03-02T04:20:15;2.03;;;1.70;;
313;SDS011;143;51.634;7.112;2024-03-02T04:22:41;4.03;;;1.80;;
313;SDS011;143;51.634;7.112;2024-03-02T04:25:06;3.10;;;1.20;;
313;SDS011;143;51.634;7.112;2024-03-02T04:27:32;3.97;;;1.50;;
313;SDS011;143;51.634;7.112;2024-03-02T04:29:58;3.60;;;1.67;;
313;SDS011;143;51.634;7.112;2024-03-02T04:32:25;6.33;;;1.30;;
313;SDS011;143;51.634;7.112;2024-03-02T04:34:51;4.20;;;1.50;;
313;SDS011;143;51.634;7.112;2024-03-02T04:37:17;5.37;;;1.57;;
313;SDS011;143;51.634;7.112;2024-03-02T04:39:42;4.73;;;2.10;;
313;SDS011;143;51.634;7.112;2024-03-02T04:42:08;2.23;;;1.30;;
313;SDS011;143;51.634;7.112;2024-03-02T04:44:33;1.60;;;1.23;;
313;SDS011;143;51.634;7.112;2024-03-02T04:46:59;2.80;;;1.30;;
313;SDS011;143;51.634;7.112;2024-03-02T04:49:24;2.23;;;1.33;;
313;SDS011;143;51.634;7.112;2024-03-02T04:51:50;2.90;;;1.50;;
313;SDS011;143;51.634;7.112;2024-03-02T04:54:16;4.20;;;1.83;;
313;SDS011;143;51.634;7.112;2024-03-02T04:56:41;3.10;;;1.80;;
313;SDS011;143;51.634;7.112;2024-03-02T04:59:15;2.90;;;1.27;;
313;SDS011;143;51.634;7.112;2024-03-02T05:01:42;2.50;;;1.90;;
313;SDS011;143;51.634;7.112;2024-03-02T05:04:08;2.50;;;1.50;;
313;SDS011;143;51.634;7.112;2024-03-02T05:06:36;1.73;;;1.23;;
313;SDS011;143;51.634;7.112;2024-03-02T05:09:08;2.60;;;1.27;;
313;SDS011;143;51.634;7.112;2024-03-02T05:11:34;2.40;;;1.77;;
313;SDS011;143;51.634;7.112;2024-03-02T05:14:03;3.97;;;1.63;;
313;SDS011;143;51.634;7.112;2024-03-02T05:16:29;3.50;;;1.43;;
313;SDS011;143;51.634;7.112;2024-03-02T05:18:58;3.67;;;1.63;;
313;SDS011;143;51.634;7.112;2024-03-02T05:21:23;5.07;;;1.77;;
313;SDS011;143;51.634;7.112;2024-03-02T05:23:49;3.90;;;1.77;;
313;SDS011;143;51.634;7.112;2024-03-02T05:26:14;3.30;;;1.40;;
313;SDS011;143;51.634;7.112;2024-03-02T05:28:40;2.63;;;1.70;;
313;SDS011;143;51.634;7.112;2024-03-02T05:31:05;4.13;;;1.80;;
313;SDS011;143;51.634;7.112;2024-03-02T05:33:31;3.87;;;1.47;;
313;SDS011;143;51.634;7.112;2024-03-02T05:35:58;4.00;;;1.60;;
313;SDS011;143;51.634;7.112;2024-03-02T05:38:23;1.43;;;1.17;;
313;SDS011;143;51.634;7.112;2024-03-02T05:40:49;4.70;;;1.70;;
313;SDS011;143;51.634;7.112;2024-03-02T05:43:15;1.90;;;1.53;;
313;SDS011;143;51.634;7.112;2024-03-02T05:45:40;6.30;;;1.60;;
313;SDS011;143;51.634;7.112;2024-03-02T05:48:06;1.97;;;1.63;;
313;SDS011;143;51.634;7.112;2024-03-02T05:50:32;2.50;;;1.53;;
313;SDS011;143;51.634;7.112;2024-03-02T05:52:58;2.60;;;1.70;;
313;SDS011;143;51.634;7.112;2024-03-02T05:55:24;2.80;;;1.70;;
313;SDS011;143;51.634;7.112;2024-03-02T05:57:49;6.03;;;2.07;;
313;SDS011;143;51.634;7.112;2024-03-02T06:00:35;3.13;;;1.93;;
313;SDS011;143;51.634;7.112;2024-03-02T06:03:01;2.40;;;1.50;;
313;SDS011;143;51.634;7.112;2024-03-02T06:05:26;2.80;;;1.93;;
313;SDS011;143;51.634;7.112;2024-03-02T06:07:52;4.00;;;1.67;;
313;SDS011;143;51.634;7.112;2024-03-02T06:10:17;2.77;;;1.73;;
313;SDS011;143;51.634;7.112;2024-03-02T06:12:43;3.90;;;1.60;;
313;SDS011;143;51.634;7.112;2024-03-02T06:15:09;3.97;;;1.50;;
313;SDS011;143;51.634;7.112;2024-03-02T06:17:35;2.87;;;1.80;;
313;SDS011;143;51.634;7.112;2024-03-02T06:20:01;2.97;;;1.50;;
313;SDS011;143;51.634;7.112;2024-03-02T06:22:27;8.50;;;2.07;;
313;SDS011;143;51.634;7.112;2024-03-02T06:24:53;5.07;;;1.97;;
313;SDS011;143;51.634;7.112;2024-03-02T06:27:18;3.17;;;2.00;;
313;SDS011;143;51.634;7.112;2024-03-02T06:29:44;6.00;;;2.23;;
313;SDS011;143;51.634;7.112;2024-03-02T06:32:10;2.60;;;1.73;;
313;SDS011;143;51.634;7.112;2024-03-02T06:34:35;6.70;;;1.90;;
313;SDS011;143;51.634;7.112;2024-03-02T06:37:01;4.50;;;1.70;;
313;SDS011;143;51.634;7.112;2024-03-02T06:39:27;4.63;;;1.93;;
313;SDS011;143;51.634;7.112;2024-03-02T06:41:52;3.67;;;1.77;;
313;SDS011;143;51.634;7.112;2024-03-02T06:44:18;2.80;;;1.93;;
313;SDS011;143;51.634;7.112;2024-03-02T06:46:44;3.03;;;1.90;;
313;SDS011;143;51.634;7.112;2024-03-02T06:49:09;4.00;;;2.00;;
313;SDS011;143;51.634;7.112;2024-03-02T06:51:37;2.93;;;1.70;;
313;SDS011;143;51.634;7.112;2024-03-02T06:54:03;5.37;;;2.67;;
313;SDS011;143;51.634;7.112;2024-03-02T06:56:28;2.23;;;1.63;;
313;SDS011;143;51.634;7.112;2024-03-02T06:58:55;4.73;;;2.10;;
313;SDS011;143;51.634;7.112;2024-03-02T07:01:21;4.83;;;2.13;;
313;SDS011;143;51.634;7.112;2024-03-02T07:03:46;4.13;;;1.93;;
313;SDS011;143;51.634;7.112;2024-03-02T07:06:12;7.60;;;2.07;;
313;SDS011;143;51.634;7.112;2024-03-02T07:08:37;5.33;;;2.10;;
313;SDS011;143;51.634;7.112;2024-03-02T07:11:03;4.33;;;2.17;;
313;SDS011;143;51.634;7.112;2024-03-02T07:13:29;4.50;;;2.40;;
313;SDS011;143;51.634;7.112;2024-03-02T07:15:54;5.23;;;2.27;;
313;SDS011;143;51.634;7.112;2024-03-02T07:18:29;6.07;;;2.83;;
313;SDS011;143;51.634;7.112;2024-03-02T07:20:56;4.10;;;2.20;;
313;SDS011;143;51.634;7.112;2024-03-02T07:23:24;3.73;;;2.57;;
313;SDS011;143;51.634;7.112;2024-03-02T07:25:52;4.00;;;2.50;;
313;SDS011;143;51.634;7.112;2024-03-02T07:28:21;4.97;;;2.83;;
313;SDS011;143;51.634;7.112;2024-03-02T07:30:59;3.60;;;2.70;;
313;SDS011;143;51.634;7.112;2024-03-02T07:33:29;4.10;;;2.80;;
313;SDS011;143;51.634;7.112;2024-03-02T07:35:55;4.97;;;2.87;;
313;SDS011;143;51.634;7.112;2024-03-02T07:38:21;9.90;;;2.30;;
313;SDS011;143;51.634;7.112;2024-03-02T07:40:48;6.30;;;3.10;;
313;SDS011;143;51.634;7.112;2024-03-02T07:43:18;6.20;;;2.90;;
313;SDS011;143;51.634;7.112;2024-03-02T07:45:47;7.10;;;3.17;;
313;SDS011;143;51.634;7.112;2024-03-02T07:48:13;8.33;;;2.80;;
313;SDS011;143;51.634;7.112;2024-03-02T07:50:39;4.60;;;2.40;;
313;SDS011;143;51.634;7.112;2024-03-02T07:53:05;5.30;;;2.77;;
313;SDS011;143;51.634;7.112;2024-03-02T07:55:31;4.10;;;2.43;;
313;SDS011;143;51.634;7.112;2024-03-02T07:57:57;4.23;;;2.63;;
313;SDS011;143;51.634;7.112;2024-03-02T08:00:23;3.90;;;2.83;;
313;SDS011;143;51.634;7.112;2024-03-02T08:02:49;3.50;;;2.17;;
313;SDS011;143;51.634;7.112;2024-03-02T08:05:16;6.80;;;3.63;;
313;SDS011;143;51.634;7.112;2024-03-02T08:07:43;8.70;;;3.80;;
313;SDS011;143;51.634;7.112;2024-03-02T08:10:09;6.03;;;2.90;;
313;SDS011;143;51.634;7.112;2024-03-02T08:12:35;5.60;;;3.07;;
313;SDS011;143;51.634;7.112;2024-03-02T08:15:01;4.63;;;2.03;;
313;SDS011;143;51.634;7.112;2024-03-02T08:17:26;6.47;;;2.70;;
313;SDS011;143;51.634;7.112;2024-03-02T08:19:52;5.37;;;2.03;;
313;SDS011;143;51.634;7.112;2024-03-02T08:22:18;4.20;;;2.87;;
313;SDS011;143;51.634;7.112;2024-03-02T08:24:44;4.60;;;2.80;;
313;SDS011;143;51.634;7.112;2024-03-02T08:27:09;5.87;;;2.40;;
313;SDS011;143;51.634;7.112;2024-03-02T08:29:35;4.40;;;2.33;;
313;SDS011;143;51.634;7.112;2024-03-02T08:32:01;6.10;;;2.70;;
313;SDS011;143;51.634;7.112;2024-03-02T08:34:26;3.00;;;2.27;;
313;SDS011;143;51.634;7.112;2024-03-02T08:36:52;7.33;;;2.53;;
313;SDS011;143;51.634;7.112;2024-03-02T08:39:18;2.73;;;2.00;;
313;SDS011;143;51.634;7.112;2024-03-02T08:41:44;4.13;;;2.40;;
313;SDS011;143;51.634;7.112;2024-03-02T08:44:11;4.40;;;2.03;;
313;SDS011;143;51.634;7.112;2024-03-02T08:46:38;8.37;;;2.33;;
313;SDS011;143;51.634;7.112;2024-03-02T08:49:04;2.07;;;1.87;;
313;SDS011;143;51.634;7.112;2024-03-02T08:51:30;3.53;;;2.00;;
313;SDS011;143;51.634;7.112;2024-03-02T08:53:56;5.40;;;2.93;;
313;SDS011;143;51.634;7.112;2024-03-02T08:56:22;4.33;;;2.53;;
313;SDS011;143;51.634;7.112;2024-03-02T08:58:49;4.10;;;2.53;;
313;SDS011;143;51.634;7.112;2024-03-02T09:01:15;3.70;;;2.03;;
313;SDS011;143;51.634;7.112;2024-03-02T09:03:42;5.90;;;2.60;;
313;SDS011;143;51.634;7.112;2024-03-02T09:06:11;3.87;;;2.13;;
313;SDS011;143;51.634;7.112;2024-03-02T09:08:37;6.43;;;3.10;;
313;SDS011;143;51.634;7.112;2024-03-02T09:11:04;3.83;;;2.00;;
313;SDS011;143;51.634;7.112;2024-03-02T09:13:30;3.90;;;2.00;;
313;SDS011;143;51.634;7.112;2024-03-02T09:15:56;2.77;;;1.73;;
313;SDS011;143;51.634;7.112;2024-03-02T09:18:22;4.47;;;1.97;;
313;SDS011;143;51.634;7.112;2024-03-02T09:20:47;3.23;;;2.07;;
313;SDS011;143;51.634;7.112;2024-03-02T09:23:13;2.80;;;1.97;;
313;SDS011;143;51.634;7.112;2024-03-02T09:25:39;3.03;;;1.93;;
313;SDS011;143;51.634;7.112;2024-03-02T09:28:04;4.43;;;1.50;;
313;SDS011;143;51.634;7.112;2024-03-02T09:30:30;3.60;;;1.90;;
313;SDS011;143;51.634;7.112;2024-03-02T09:32:56;7.30;;;1.80;;
313;SDS011;143;51.634;7.112;2024-03-02T09:35:21;2.70;;;1.77;;
313;SDS011;143;51.634;7.112;2024-03-02T09:37:47;3.97;;;1.90;;
313;SDS011;143;51.634;7.112;2024-03-02T09:40:13;2.43;;;1.40;;
313;SDS011;143;51.634;7.112;2024-03-02T09:42:39;3.87;;;1.70;;
313;SDS011;143;51.634;7.112;2024-03-02T09:45:06;3.50;;;1.60;;
313;SDS011;143;51.634;7.112;2024-03-02T09:47:32;2.80;;;1.73;;
313;SDS011;143;51.634;7.112;2024-03-02T09:49:58;2.97;;;1.40;;
313;SDS011;143;51.634;7.112;2024-03-02T09:52:23;3.33;;;1.47;;
313;SDS011;143;51.634;7.112;2024-03-02T09:54:49;2.90;;;1.80;;
313;SDS011;143;51.634;7.112;2024-03-02T09:57:15;3.40;;;1.90;;
313;SDS011;143;51.634;7.112;2024-03-02T09:59:40;2.20;;;1.23;;
313;SDS011;143;51.634;7.112;2024-03-02T10:02:06;3.10;;;1.50;;
313;SDS011;143;51.634;7.112;2024-03-02T10:04:32;13.77;;;2.60;;
313;SDS011;143;51.634;7.112;2024-03-02T10:07:13;3.03;;;1.40;;
313;SDS011;143;51.634;7.112;2024-03-02T10:09:41;8.07;;;1.50;;
313;SDS011;143;51.634;7.112;2024-03-02T10:12:08;2.70;;;1.37;;
313;SDS011;143;51.634;7.112;2024-03-02T10:14:36;3.30;;;1.73;;
313;SDS011;143;51.634;7.112;2024-03-02T10:17:12;1.40;;;1.10;;
313;SDS011;143;51.634;7.112;2024-03-02T10:19:39;2.73;;;1.33;;
313;SDS011;143;51.634;7.112;2024-03-02T10:22:05;3.23;;;1.40;;
313;SDS011;143;51.634;7.112;2024-03-02T10:27:14;1.90;;;1.17;;
313;SDS011;143;51.634;7.112;2024-03-02T10:29:41;1.50;;;1.20;;
313;SDS011;143;51.634;7.112;2024-03-02T10:32:10;2.40;;;1.33;;
313;SDS011;143;51.634;7.112;2024-03-02T10:34:37;2.23;;;1.40;;
313;SDS011;143;51.634;7.112;2024-03-02T10:37:05;2.33;;;1.37;;
313;SDS011;143;51.634;7.112;2024-03-02T10:39:32;3.10;;;1.27;;
313;SDS011;143;51.634;7.112;2024-03-02T10:42:00;2.07;;;1.77;;
313;SDS011;143;51.634;7.112;2024-03-02T10:44:28;3.37;;;1.40;;
313;SDS011;143;51.634;7.112;2024-03-02T10:46:55;3.90;;;1.43;;
313;SDS011;143;51.634;7.112;2024-03-02T10:49:20;5.20;;;1.60;;
313;SDS011;143;51.634;7.112;2024-03-02T10:51:49;1.33;;;1.27;;
313;SDS011;143;51.634;7.112;2024-03-02T10:54:14;2.00;;;1.20;;
313;SDS011;143;51.634;7.112;2024-03-02T10:56:40;1.60;;;1.23;;
313;SDS011;143;51.634;7.112;2024-03-02T10:59:56;4.87;;;1.37;;
313;SDS011;143;51.634;7.112;2024-03-02T11:01:59;3.90;;;0.93;;
313;SDS011;143;51.634;7.112;2024-03-02T11:04:26;3.13;;;1.30;;
313;SDS011;143;51.634;7.112;2024-03-02T11:06:59;3.73;;;1.60;;
313;SDS011;143;51.634;7.112;2024-03-02T11:09:27;2.37;;;1.20;;
313;SDS011;143;51.634;7.112;2024-03-02T11:14:40;4.13;;;1.50;;
313;SDS011;143;51.634;7.112;2024-03-02T11:17:09;2.23;;;1.60;;
313;SDS011;143;51.634;7.112;2024-03-02T11:19:39;4.60;;;2.00;;
313;SDS011;143;51.634;7.112;2024-03-02T11:22:05;1.93;;;1.30;;
313;SDS011;143;51.634;7.112;2024-03-02T11:24:33;6.17;;;1.33;;
313;SDS011;143;51.634;7.112;2024-03-02T11:26:59;2.37;;;1.20;;
313;SDS011;143;51.634;7.112;2024-03-02T11:32:01;2.70;;;1.27;;
313;SDS011;143;51.634;7.112;2024-03-02T11:34:31;4.23;;;1.30;;
313;SDS011;143;51.634;7.112;2024-03-02T11:37:04;4.90;;;1.40;;
313;SDS011;143;51.634;7.112;2024-03-02T11:39:30;7.17;;;1.60;;
313;SDS011;143;51.634;7.112;2024-03-02T11:41:56;3.20;;;1.30;;
313;SDS011;143;51.634;7.112;2024-03-02T11:44:26;6.47;;;1.43;;
313;SDS011;143;51.634;7.112;2024-03-02T11:46:57;2.33;;;1.10;;
313;SDS011;143;51.634;7.112;2024-03-02T11:50:11;3.93;;;1.37;;
313;SDS011;143;51.634;7.112;2024-03-02T11:52:16;2.87;;;1.50;;
313;SDS011;143;51.634;7.112;2024-03-02T11:54:43;2.77;;;1.43;;
313;SDS011;143;51.634;7.112;2024-03-02T11:57:22;2.67;;;1.30;;
313;SDS011;143;51.634;7.112;2024-03-02T11:59:48;3.30;;;1.50;;
313;SDS011;143;51.634;7.112;2024-03-02T12:02:19;4.00;;;1.63;;
313;SDS011;143;51.634;7.112;2024-03-02T12:04:45;7.37;;;1.53;;
313;SDS011;143;51.634;7.112;2024-03-02T12:07:13;3.83;;;1.47;;
313;SDS011;143;51.634;7.112;2024-03-02T12:09:47;2.60;;;1.17;;
313;SDS011;143;51.634;7.112;2024-03-02T12:12:13;3.27;;;1.20;;
313;SDS011;143;51.634;7.112;2024-03-02T12:14:49;4.20;;;1.43;;
313;SDS011;143;51.634;7.112;2024-03-02T12:17:16;1.57;;;0.83;;
313;SDS011;143;51.634;7.112;2024-03-02T12:19:41;2.80;;;1.00;;
313;SDS011;143;51.634;7.112;2024-03-02T12:22:07;3.63;;;0.90;;
313;SDS011;143;51.634;7.112;2024-03-02T12:24:32;2.47;;;1.50;;
313;SDS011;143;51.634;7.112;2024-03-02T12:26:58;2.60;;;1.10;;
313;SDS011;143;51.634;7.112;2024-03-02T12:29:24;3.03;;;1.10;;
313;SDS011;143;51.634;7.112;2024-03-02T12:31:50;5.30;;;1.30;;
313;SDS011;143;51.634;7.112;2024-03-02T12:34:19;3.53;;;1.23;;
313;SDS011;143;51.634;7.112;2024-03-02T12:36:46;1.40;;;1.03;;
313;SDS011;143;51.634;7.112;2024-03-02T12:39:18;3.43;;;1.30;;
313;SDS011;143;51.634;7.112;2024-03-02T12:41:44;3.70;;;1.33;;
313;SDS011;143;51.634;7.112;2024-03-02T12:44:11;4.33;;;1.40;;
313;SDS011;143;51.634;7.112;2024-03-02T12:46:36;3.70;;;1.30;;
313;SDS011;143;51.634;7.112;2024-03-02T12:49:09;4.10;;;0.90;;
313;SDS011;143;51.634;7.112;2024-03-02T12:51:36;5.50;;;1.10;;
313;SDS011;143;51.634;7.112;2024-03-02T12:54:06;2.00;;;0.83;;
313;SDS011;143;51.634;7.112;2024-03-02T12:56:32;3.23;;;1.27;;
313;SDS011;143;51.634;7.112;2024-03-02T12:58:58;2.37;;;1.47;;
313;SDS011;143;51.634;7.112;2024-03-02T13:01:25;2.63;;;1.37;;
313;SDS011;143;51.634;7.112;2024-03-02T13:03:51;2.00;;;1.20;;
313;SDS011;143;51.634;7.112;2024-03-02T13:06:17;2.53;;;1.50;;
313;SDS011;143;51.634;7.112;2024-03-02T13:08:45;2.90;;;1.10;;
313;SDS011;143;51.634;7.112;2024-03-02T13:11:11;2.50;;;1.10;;
313;SDS011;143;51.634;7.112;2024-03-02T13:13:38;2.70;;;1.20;;
313;SDS011;143;51.634;7.112;2024-03-02T13:16:08;2.73;;;1.20;;
313;SDS011;143;51.634;7.112;2024-03-02T13:18:35;3.60;;;1.60;;
313;SDS011;143;51.634;7.112;2024-03-02T13:21:00;1.53;;;0.97;;
313;SDS011;143;51.634;7.112;2024-03-02T13:23:26;1.90;;;0.90;;
313;SDS011;143;51.634;7.112;2024-03-02T13:25:52;3.60;;;1.23;;
313;SDS011;143;51.634;7.112;2024-03-02T13:28:17;3.97;;;1.00;;
313;SDS011;143;51.634;7.112;2024-03-02T13:30:43;1.63;;;1.03;;
313;SDS011;143;51.634;7.112;2024-03-02T13:33:08;2.80;;;1.10;;
313;SDS011;143;51.634;7.112;2024-03-02T13:35:34;1.30;;;0.90;;
313;SDS011;143;51.634;7.112;2024-03-02T13:37:59;1.60;;;0.90;;
313;SDS011;143;51.634;7.112;2024-03-02T13:40:25;3.97;;;1.30;;
313;SDS011;143;51.634;7.112;2024-03-02T13:42:50;1.63;;;1.10;;
313;SDS011;143;51.634;7.112;2024-03-02T13:45:18;3.73;;;1.30;;
313;SDS011;143;51.634;7.112;2024-03-02T13:47:44;1.97;;;1.00;;
313;SDS011;143;51.634;7.112;2024-03-02T13:50:09;2.17;;;1.00;;
313;SDS011;143;51.634;7.112;2024-03-02T13:52:35;1.57;;;0.90;;
313;SDS011;143;51.634;7.112;2024-03-02T13:55:01;1.43;;;0.80;;
313;SDS011;143;51.634;7.112;2024-03-02T13:57:27;3.20;;;0.97;;
313;SDS011;143;51.634;7.112;2024-03-02T13:59:53;1.00;;;0.77;;
313;SDS011;143;51.634;7.112;2024-03-02T14:02:19;2.80;;;1.17;;
313;SDS011;143;51.634;7.112;2024-03-02T14:04:45;1.23;;;0.90;;
313;SDS011;143;51.634;7.112;2024-03-02T14:07:10;1.60;;;0.90;;
313;SDS011;143;51.634;7.112;2024-03-02T14:09:37;3.17;;;1.00;;
313;SDS011;143;51.634;7.112;2024-03-02T14:12:02;3.40;;;1.00;;
313;SDS011;143;51.634;7.112;2024-03-02T14:14:28;1.47;;;0.90;;
313;SDS011;143;51.634;7.112;2024-03-02T14:16:54;5.23;;;1.00;;
313;SDS011;143;51.634;7.112;2024-03-02T14:19:29;1.33;;;0.90;;
313;SDS011;143;51.634;7.112;2024-03-02T14:21:54;2.90;;;1.00;;
313;SDS011;143;51.634;7.112;2024-03-02T14:24:21;1.37;;;0.50;;
313;SDS011;143;51.634;7.112;2024-03-02T14:26:51;1.20;;;0.80;;
313;SDS011;143;51.634;7.112;2024-03-02T14:29:17;3.40;;;0.73;;
313;SDS011;143;51.634;7.112;2024-03-02T14:31:43;2.80;;;0.80;;
313;SDS011;143;51.634;7.112;2024-03-02T14:34:09;1.37;;;0.90;;
313;SDS011;143;51.634;7.112;2024-03-02T14:36:34;1.33;;;0.90;;
313;SDS011;143;51.634;7.112;2024-03-02T14:39:00;5.50;;;1.27;;
313;SDS011;143;51.634;7.112;2024-03-02T14:41:26;1.33;;;0.90;;
313;SDS011;143;51.634;7.112;2024-03-02T14:43:51;1.20;;;0.90;;
313;SDS011;143;51.634;7.112;2024-03-02T14:46:17;0.80;;;0.70;;
313;SDS011;143;51.634;7.112;2024-03-02T14:48:44;1.13;;;0.80;;
313;SDS011;143;51.634;7.112;2024-03-02T14:51:11;1.20;;;0.87;;
313;SDS011;143;51.634;7.112;2024-03-02T14:53:37;1.30;;;0.90;;
313;SDS011;143;51.634;7.112;2024-03-02T14:56:03;3.43;;;1.00;;
313;SDS011;143;51.634;7.112;2024-03-02T14:58:29;1.83;;;0.83;;
313;SDS011;143;51.634;7.112;2024-03-02T15:00:55;2.63;;;1.03;;
313;SDS011;143;51.634;7.112;2024-03-02T15:03:20;1.30;;;0.70;;
313;SDS011;143;51.634;7.112;2024-03-02T15:05:46;1.63;;;0.87;;
313;SDS011;143;51.634;7.112;2024-03-02T15:08:12;1.20;;;0.97;;
313;SDS011;143;51.634;7.112;2024-03-02T15:10:38;3.63;;;1.23;;
313;SDS011;143;51.634;7.112;2024-03-02T15:13:04;1.50;;;0.80;;
313;SDS011;143;51.634;7.112;2024-03-02T15:15:29;1.80;;;0.90;;
313;SDS011;143;51.634;7.112;2024-03-02T15:17:55;1.63;;;0.97;;
313;SDS011;143;51.634;7.112;2024-03-02T15:20:21;1.73;;;0.90;;
313;SDS011;143;51.634;7.112;2024-03-02T15:22:47;1.53;;;1.03;;
313;SDS011;143;51.634;7.112;2024-03-02T15:25:13;3.13;;;1.00;;
313;SDS011;143;51.634;7.112;2024-03-02T15:27:40;2.30;;;1.00;;
313;SDS011;143;51.634;7.112;2024-03-02T15:30:07;1.83;;;0.90;;
313;SDS011;143;51.634;7.112;2024-03-02T15:32:33;5.03;;;1.13;;
313;SDS011;143;51.634;7.112;2024-03-02T15:34:59;7.73;;;3.83;;
313;SDS011;143;51.634;7.112;2024-03-02T15:37:25;5.30;;;2.13;;
313;SDS011;143;51.634;7.112;2024-03-02T15:39:50;9.73;;;4.30;;
313;SDS011;143;51.634;7.112;2024-03-02T15:42:16;6.70;;;3.60;;
313;SDS011;143;51.634;7.112;2024-03-02T15:44:42;2.97;;;1.90;;
313;SDS011;143;51.634;7.112;2024-03-02T15:47:08;3.93;;;2.10;;
313;SDS011;143;51.634;7.112;2024-03-02T15:49:34;4.30;;;1.53;;
313;SDS011;143;51.634;7.112;2024-03-02T15:51:59;6.40;;;1.20;;